Terminal Aerodrome Forecast
Issued by NWS

Current Version | Previous Version | Text Only | Print | Product List | Glossary On
Versions: 1 2 3 4 5 6 7 8 9 10 11 12
050
FTUS45 KABQ 111720
TAFROW
TAF
KROW 111720Z 1118/1218 01013KT P6SM SKC
     FM112300 13006KT P6SM SKC
     FM120900 35007KT P6SM SKC
     FM121700 15006KT P6SM SKC=

USA.gov is the U.S. government's official web portal to all federal, state and local government web resources and services.